Time;durP1;ratioP1;P1;durP2;ratioP2;P2;SDS_P1;SDS_P2;PMS_P1;PMS_P2;Temp;Humidity;BMP_temperature;BMP_pressure;BME280_temperature;BME280_humidity;BME280_pressure;Samples;Min_cycle;Max_cycle;Signal;HPM_P1;HPM_P2
2021/12/01 00:00:53;;;;;;;1.70;1.60;;;;;;;22.01;31.81;99588.30;1895090;74;28018;-61
2021/12/01 00:03:42;;;;;;;1.60;1.50;;;;;;;22.02;31.80;99583.14;1895639;74;28154;-60
2021/12/01 00:06:31;;;;;;;1.57;1.42;;;;;;;22.03;31.79;99579.88;1891459;75;28163;-60
2021/12/01 00:09:19;;;;;;;1.30;1.30;;;;;;;22.02;31.80;99570.84;1853866;76;28255;-60
2021/12/01 00:12:08;;;;;;;1.55;1.55;;;;;;;22.01;31.85;99568.63;1824903;78;28305;-60
2021/12/01 00:14:57;;;;;;;1.50;1.50;;;;;;;21.96;31.87;99567.66;1843711;77;28234;-60
2021/12/01 00:17:48;;;;;;;1.60;1.50;;;;;;;21.97;31.88;99568.79;1837871;77;28231;-59
2021/12/01 00:20:38;;;;;;;1.80;1.60;;;;;;;21.92;31.87;99565.05;1834892;77;28291;-60
2021/12/01 00:23:27;;;;;;;1.77;1.67;;;;;;;21.92;31.90;99565.90;1832040;77;28283;-60
2021/12/01 00:26:15;;;;;;;1.60;1.50;;;;;;;21.90;31.85;99563.93;1836407;77;28356;-61
2021/12/01 00:29:04;;;;;;;1.70;1.60;;;;;;;21.89;31.86;99553.23;1830037;77;28218;-60
2021/12/01 00:31:53;;;;;;;1.70;1.60;;;;;;;21.89;31.82;99562.80;1832334;77;28300;-60
2021/12/01 00:34:41;;;;;;;1.50;1.40;;;;;;;21.88;31.84;99555.12;1805465;76;28420;-60
2021/12/01 00:37:30;;;;;;;1.55;1.50;;;;;;;21.87;31.86;99563.01;1823124;77;28235;-60
2021/12/01 00:40:18;;;;;;;1.80;1.70;;;;;;;21.88;31.89;99558.37;1870785;75;28172;-60
2021/12/01 00:43:07;;;;;;;1.55;1.50;;;;;;;21.86;31.88;99552.30;1885923;75;32965;-60
2021/12/01 00:46:08;;;;;;;1.60;1.50;;;;;;;21.85;31.91;99553.36;1891298;75;28133;-59
2021/12/01 00:48:48;;;;;;;1.70;1.60;;;;;;;21.85;31.89;99545.16;1884493;75;28167;-62
2021/12/01 00:51:36;;;;;;;1.65;1.55;;;;;;;21.84;31.90;99536.11;1867847;75;28191;-62
2021/12/01 00:54:25;;;;;;;1.75;1.45;;;;;;;21.83;31.90;99534.42;1870757;75;28121;-60
2021/12/01 00:57:13;;;;;;;1.57;1.47;;;;;;;21.82;31.93;99524.53;1869048;75;28158;-61
2021/12/01 01:00:04;;;;;;;1.70;1.60;;;;;;;21.83;31.93;99521.28;1897431;75;28146;-60
2021/12/01 01:02:53;;;;;;;1.60;1.50;;;;;;;21.81;31.94;99516.05;1884493;75;28103;-60
2021/12/01 01:05:41;;;;;;;1.67;1.57;;;;;;;21.81;31.97;99506.48;1895662;75;28044;-60
2021/12/01 01:08:31;;;;;;;1.60;1.50;;;;;;;21.81;31.99;99507.84;1881802;75;28208;-60
2021/12/01 01:17:37;;;;;;;1.40;1.40;;;;;;;21.75;32.12;99496.44;1857397;75;28146;-60
2021/12/01 01:20:26;;;;;;;1.70;1.60;;;;;;;21.72;32.21;99485.98;1882958;75;28148;-60
2021/12/01 01:23:14;;;;;;;1.62;1.52;;;;;;;21.75;32.17;99487.42;1881183;75;28212;-60
2021/12/01 01:26:07;;;;;;;1.57;1.50;;;;;;;21.75;32.14;99488.23;1871717;75;28023;-60
2021/12/01 01:28:57;;;;;;;1.40;1.40;;;;;;;21.75;32.15;99480.03;1881364;75;28133;-60
2021/12/01 01:31:46;;;;;;;1.62;1.52;;;;;;;21.76;32.16;99482.24;1879674;75;28158;-60
2021/12/01 01:34:34;;;;;;;1.70;1.60;;;;;;;21.73;32.13;99469.02;1869558;75;28204;-62
2021/12/01 01:37:23;;;;;;;1.70;1.60;;;;;;;21.73;32.22;99473.96;1882715;75;28086;-61
2021/12/01 01:40:12;;;;;;;1.70;1.60;;;;;;;21.72;32.19;99469.58;1886578;75;28067;-61
2021/12/01 01:43:01;;;;;;;1.30;1.30;;;;;;;21.71;32.21;99471.99;1884365;75;28681;-61
2021/12/01 01:45:54;;;;;;;1.70;1.60;;;;;;;21.72;32.21;99473.68;1887698;75;28059;-61
2021/12/01 01:48:53;;;;;;;1.60;1.50;;;;;;;21.72;32.27;99469.58;1886600;75;28144;-60
2021/12/01 01:51:37;;;;;;;1.70;1.60;;;;;;;21.71;32.25;99460.22;1901479;75;28075;-60
2021/12/01 01:54:25;;;;;;;1.60;1.50;;;;;;;21.72;32.25;99457.80;1862399;75;28118;-60
2021/12/01 01:57:14;;;;;;;1.60;1.50;;;;;;;21.71;32.29;99443.29;1890284;75;28143;-60
2021/12/01 02:00:08;;;;;;;1.50;1.50;;;;;;;21.70;32.29;99437.53;1885141;75;28077;-60
2021/12/01 02:02:59;;;;;;;1.67;1.50;;;;;;;21.73;32.26;99430.74;1876411;75;28038;-60
2021/12/01 02:05:46;;;;;;;1.70;1.60;;;;;;;21.71;32.26;99429.62;1878738;75;28164;-61
2021/12/01 02:08:36;;;;;;;1.60;1.50;;;;;;;21.72;32.25;99427.73;1868715;76;28187;-61
2021/12/01 02:11:29;;;;;;;1.60;1.57;;;;;;;21.73;32.24;99428.85;1884908;75;28030;-61
2021/12/01 02:14:17;;;;;;;1.60;1.50;;;;;;;21.70;32.26;99426.60;1878760;75;28177;-60
2021/12/01 02:17:08;;;;;;;1.45;1.42;;;;;;;21.71;32.28;99416.48;1890977;75;28208;-60
2021/12/01 02:19:57;;;;;;;1.70;1.50;;;;;;;21.70;32.30;99421.66;1886865;75;28045;-60
2021/12/01 02:22:46;;;;;;;1.72;1.62;;;;;;;21.69;32.32;99416.72;1886359;75;28316;-60
2021/12/01 02:25:34;;;;;;;1.75;1.65;;;;;;;21.69;32.29;99414.51;1887462;75;28210;-61
2021/12/01 02:28:23;;;;;;;1.90;1.60;;;;;;;21.67;32.34;99409.81;1886092;75;28180;-62
2021/12/01 02:31:13;;;;;;;1.77;1.67;;;;;;;21.67;32.32;99407.91;1873613;75;38986;-60
2021/12/01 02:34:05;;;;;;;1.67;1.57;;;;;;;21.70;32.34;99406.63;1875514;75;28123;-62
2021/12/01 02:36:59;;;;;;;1.77;1.67;;;;;;;21.67;32.29;99403.81;1879818;75;28162;-62
2021/12/01 02:39:52;;;;;;;1.50;1.40;;;;;;;21.67;32.34;99396.98;1875906;75;28204;-62
2021/12/01 02:42:40;;;;;;;1.40;1.40;;;;;;;21.68;32.30;99376.77;1890716;75;28503;-61
2021/12/01 02:45:29;;;;;;;1.77;1.67;;;;;;;21.64;32.28;99361.06;1885178;75;28034;-60
2021/12/01 02:48:18;;;;;;;1.65;1.55;;;;;;;21.68;32.28;99363.66;1893058;75;28173;-60
2021/12/01 02:51:06;;;;;;;1.70;1.60;;;;;;;21.66;32.30;99366.59;1890791;75;28189;-60
2021/12/01 02:53:56;;;;;;;1.80;1.70;;;;;;;21.67;32.33;99366.91;1872823;75;28179;-60
2021/12/01 02:56:51;;;;;;;1.70;1.60;;;;;;;21.69;32.32;99359.31;1884405;75;28048;-59
2021/12/01 02:59:40;;;;;;;1.50;1.40;;;;;;;21.68;32.30;99350.80;1895390;75;28105;-60
2021/12/01 03:02:29;;;;;;;1.80;1.70;;;;;;;21.69;32.31;99353.00;1896779;75;28200;-60
2021/12/01 03:05:20;;;;;;;1.60;1.50;;;;;;;21.67;32.27;99346.94;1890136;75;28069;-60
2021/12/01 03:08:09;;;;;;;1.62;1.52;;;;;;;21.68;32.28;99347.25;1884362;75;28150;-60
2021/12/01 03:10:58;;;;;;;1.80;1.70;;;;;;;21.67;32.32;99347.78;1878434;75;28132;-60
2021/12/01 03:13:46;;;;;;;1.63;1.53;;;;;;;21.68;32.31;99347.25;1898108;75;28493;-60
2021/12/01 03:16:36;;;;;;;1.50;1.40;;;;;;;21.66;32.33;99339.78;1888790;75;28075;-60
2021/12/01 03:19:25;;;;;;;1.60;1.50;;;;;;;21.64;32.29;99335.93;1901491;75;28073;-60
2021/12/01 03:22:15;;;;;;;1.62;1.55;;;;;;;21.67;32.29;99336.84;1870443;75;28243;-61
2021/12/01 03:25:09;;;;;;;1.50;1.50;;;;;;;21.67;32.31;99328.64;1890811;75;28042;-61
2021/12/01 03:27:57;;;;;;;1.60;1.50;;;;;;;21.66;32.34;99326.95;1887217;75;28057;-60
2021/12/01 03:30:47;;;;;;;1.40;1.40;;;;;;;21.66;32.33;99324.75;1868921;75;28196;-62
2021/12/01 03:33:36;;;;;;;1.45;1.40;;;;;;;21.60;32.36;99311.50;1878590;75;28050;-59
2021/12/01 03:36:25;;;;;;;1.57;1.55;;;;;;;21.64;32.33;99311.33;1875028;74;28234;-60
2021/12/01 03:39:15;;;;;;;2.20;1.60;;;;;;;21.62;32.35;99310.73;1891457;74;28213;-60
2021/12/01 03:42:06;;;;;;;1.50;1.50;;;;;;;21.63;32.33;99302.84;1892261;74;28743;-61
2021/12/01 03:44:56;;;;;;;1.70;1.60;;;;;;;21.62;32.33;99293.48;1881003;74;28407;-61
2021/12/01 03:47:44;;;;;;;1.70;1.60;;;;;;;21.61;32.38;99289.91;1891368;74;28633;-60
2021/12/01 03:50:34;;;;;;;1.80;1.70;;;;;;;21.62;32.34;99291.59;1878451;76;28174;-61
2021/12/01 03:53:25;;;;;;;1.57;1.47;;;;;;;21.63;32.33;99294.64;1882234;74;28184;-61
2021/12/01 03:56:13;;;;;;;1.70;1.60;;;;;;;21.63;32.38;99282.34;1881830;75;28068;-61
2021/12/01 03:59:06;;;;;;;1.60;1.50;;;;;;;21.61;32.36;99280.34;1899442;74;28080;-61
2021/12/01 04:01:54;;;;;;;1.60;1.53;;;;;;;21.61;32.55;99275.44;1892366;74;28193;-60
2021/12/01 04:04:43;;;;;;;1.70;1.60;;;;;;;21.61;32.55;99275.44;1891597;74;28009;-60
2021/12/01 04:07:33;;;;;;;1.70;1.60;;;;;;;21.59;32.38;99272.92;1899912;74;28268;-60
2021/12/01 04:10:21;;;;;;;1.70;1.60;;;;;;;21.58;32.40;99263.08;1895119;74;28230;-62
2021/12/01 04:13:11;;;;;;;1.70;1.60;;;;;;;21.61;32.35;99254.94;1878455;76;28208;-62
2021/12/01 04:16:01;;;;;;;1.85;1.70;;;;;;;21.61;32.37;99248.11;1881360;74;28134;-59
2021/12/01 04:18:49;;;;;;;1.70;1.60;;;;;;;21.57;32.38;99246.36;1881532;75;28215;-59
2021/12/01 04:21:40;;;;;;;1.80;1.70;;;;;;;21.57;32.38;99238.16;1904676;74;28031;-60
2021/12/01 04:24:28;;;;;;;1.65;1.55;;;;;;;21.59;32.35;99236.02;1895970;74;28044;-60
2021/12/01 04:27:19;;;;;;;1.75;1.65;;;;;;;21.56;32.38;99229.68;1911265;74;28052;-60
2021/12/01 04:30:11;;;;;;;1.65;1.55;;;;;;;21.57;32.37;99221.77;1889566;74;28121;-60
2021/12/01 04:32:59;;;;;;;1.50;1.50;;;;;;;21.57;32.40;99225.02;1880419;74;28547;-60
2021/12/01 04:35:50;;;;;;;1.62;1.52;;;;;;;21.56;32.36;99226.11;1878323;76;28219;-60
2021/12/01 04:38:38;;;;;;;1.62;1.52;;;;;;;21.59;32.39;99218.78;1881518;74;28222;-60
2021/12/01 04:41:30;;;;;;;1.70;1.60;;;;;;;21.57;32.38;99210.83;1879427;74;28677;-62
2021/12/01 04:44:19;;;;;;;1.60;1.50;;;;;;;21.57;32.41;99208.09;1879153;74;32113;-62
2021/12/01 04:47:13;;;;;;;1.60;1.50;;;;;;;21.57;32.41;99200.42;1894405;74;28215;-60
2021/12/01 04:50:00;;;;;;;1.40;1.40;;;;;;;21.56;32.41;99195.52;1898970;74;28231;-61
2021/12/01 04:52:51;;;;;;;1.77;1.67;;;;;;;21.54;32.44;99188.06;1904750;74;28051;-60
2021/12/01 04:55:41;;;;;;;1.57;1.47;;;;;;;21.55;32.40;99187.53;1890247;74;28125;-62
2021/12/01 04:58:30;;;;;;;1.67;1.57;;;;;;;21.57;32.39;99178.56;1894181;74;28144;-62
2021/12/01 05:01:19;;;;;;;1.70;1.60;;;;;;;21.51;32.39;99168.05;1889508;74;28220;-61
2021/12/01 05:04:10;;;;;;;2.12;1.57;;;;;;;21.47;32.37;99170.94;1905313;74;28168;-60
2021/12/01 05:06:59;;;;;;;1.53;1.50;;;;;;;21.45;32.41;99175.00;1899870;74;28169;-61
2021/12/01 05:09:48;;;;;;;2.27;2.17;;;;;;;21.43;32.42;99168.38;1906374;74;28132;-55
2021/12/01 05:12:37;;;;;;;2.50;2.05;;;;;;;21.20;31.57;99168.33;1892220;73;28244;-50
2021/12/01 05:15:25;;;;;;;2.83;1.80;;;;;;;21.08;31.76;99170.19;1904481;74;28089;-53
2021/12/01 05:18:14;;;;;;;2.10;1.90;;;;;;;21.03;31.77;99167.28;1890745;74;28223;-50
2021/12/01 05:21:02;;;;;;;1.90;1.80;;;;;;;20.93;31.80;99161.04;1892313;74;28128;-52
2021/12/01 05:23:50;;;;;;;2.00;1.90;;;;;;;20.88;31.85;99166.36;1895499;74;28226;-52
2021/12/01 05:26:39;;;;;;;1.90;1.80;;;;;;;20.87;31.90;99161.95;1890986;74;28117;-52
2021/12/01 05:29:29;;;;;;;1.90;1.80;;;;;;;20.86;31.93;99158.09;1888735;74;28183;-51
2021/12/01 05:32:18;;;;;;;1.98;1.87;;;;;;;20.84;32.03;99156.13;1891081;74;28087;-53
2021/12/01 05:35:07;;;;;;;1.80;1.70;;;;;;;20.89;32.09;99158.97;1888931;74;28611;-53
2021/12/01 05:37:57;;;;;;;1.72;1.62;;;;;;;20.87;32.16;99166.56;1888333;74;28285;-50
2021/12/01 05:40:50;;;;;;;1.60;1.50;;;;;;;20.89;32.18;99168.53;1907429;73;28251;-50
2021/12/01 05:43:39;;;;;;;1.67;1.52;;;;;;;20.86;32.29;99158.09;1890758;74;28653;-53
2021/12/01 05:46:27;;;;;;;1.72;1.62;;;;;;;20.92;32.28;99166.19;1881801;74;28769;-50
2021/12/01 05:49:16;;;;;;;1.65;1.55;;;;;;;20.97;32.30;99166.33;1881292;74;28145;-54
2021/12/01 05:52:07;;;;;;;1.37;1.37;;;;;;;20.93;32.37;99161.56;1896817;74;28101;-49
2021/12/01 05:54:56;;;;;;;1.60;1.50;;;;;;;20.96;32.47;99167.38;1878297;74;28263;-52
2021/12/01 05:57:45;;;;;;;1.70;1.60;;;;;;;20.92;32.56;99169.44;1900292;74;28211;-52
2021/12/01 06:00:33;;;;;;;1.70;1.60;;;;;;;20.93;32.61;99167.87;1901984;74;28159;-50
2021/12/01 06:03:21;;;;;;;1.50;1.40;;;;;;;20.97;32.64;99165.48;1894803;74;28115;-53
2021/12/01 06:06:10;;;;;;;1.50;1.50;;;;;;;20.99;32.65;99155.16;1890324;74;28111;-53
2021/12/01 06:08:58;;;;;;;1.40;1.30;;;;;;;21.00;32.68;99166.40;1907478;74;28067;-51
2021/12/01 06:11:48;;;;;;;1.50;1.40;;;;;;;21.00;32.76;99165.03;1905071;73;28046;-52
2021/12/01 06:14:36;;;;;;;1.30;1.30;;;;;;;21.00;32.81;99175.96;1897887;74;28049;-52
2021/12/01 06:17:25;;;;;;;1.42;1.42;;;;;;;21.00;32.84;99165.88;1900551;74;28137;-50
2021/12/01 06:20:15;;;;;;;1.60;1.50;;;;;;;21.00;32.82;99154.95;1892007;74;28153;-49
2021/12/01 06:23:04;;;;;;;1.50;1.40;;;;;;;21.01;32.89;99149.77;1883924;74;28130;-53
2021/12/01 06:25:53;;;;;;;1.32;1.32;;;;;;;21.03;32.88;99147.64;1893389;74;28171;-54
2021/12/01 06:28:41;;;;;;;1.35;1.30;;;;;;;21.06;32.92;99149.11;1909452;74;28036;-52
2021/12/01 06:31:30;;;;;;;1.40;1.30;;;;;;;21.07;32.95;99146.69;1881552;74;28181;-53
2021/12/01 06:34:19;;;;;;;1.60;1.50;;;;;;;21.03;33.03;99133.14;1874020;76;28695;-53
2021/12/01 06:37:08;;;;;;;1.50;1.40;;;;;;;21.04;33.15;99133.45;1908890;74;28147;-51
2021/12/01 06:39:57;;;;;;;1.50;1.40;;;;;;;21.04;33.19;99130.23;1887273;74;28027;-53
2021/12/01 06:42:46;;;;;;;1.20;1.20;;;;;;;21.03;33.24;99127.69;1909020;73;28019;-51
2021/12/01 06:45:35;;;;;;;1.20;1.20;;;;;;;21.05;33.24;99123.69;1896056;74;28036;-50
2021/12/01 06:48:24;;;;;;;1.40;1.40;;;;;;;21.05;33.30;99132.44;1905195;74;28130;-50
2021/12/01 06:51:12;;;;;;;1.20;1.20;;;;;;;21.04;33.33;99134.33;1884307;74;28035;-51
2021/12/01 06:54:00;;;;;;;1.30;1.30;;;;;;;21.05;33.29;99138.70;1889057;74;28101;-54
2021/12/01 06:56:48;;;;;;;1.40;1.30;;;;;;;21.06;33.32;99129.99;1894841;74;28173;-51
2021/12/01 06:59:38;;;;;;;1.37;1.27;;;;;;;21.09;33.37;99130.38;1888593;74;28192;-50
2021/12/01 07:02:28;;;;;;;1.27;1.27;;;;;;;21.10;33.32;99127.92;1889194;74;28086;-49
2021/12/01 07:05:19;;;;;;;1.42;1.35;;;;;;;21.09;33.36;99115.35;1899730;74;28056;-50
2021/12/01 07:08:08;;;;;;;1.55;1.45;;;;;;;21.10;33.34;99108.80;1888753;74;28193;-55
2021/12/01 07:10:58;;;;;;;1.40;1.30;;;;;;;21.12;33.39;99112.69;1900834;73;28162;-54
2021/12/01 07:13:48;;;;;;;1.20;1.20;;;;;;;21.14;33.35;99106.45;1891851;74;28216;-48
2021/12/01 07:16:36;;;;;;;1.20;1.20;;;;;;;21.15;33.34;99109.47;1878235;76;28129;-50
2021/12/01 07:19:26;;;;;;;1.60;1.50;;;;;;;21.14;33.35;99107.27;1900789;74;28142;-54
2021/12/01 07:22:15;;;;;;;1.20;1.20;;;;;;;21.17;33.34;99108.70;1900839;74;28287;-52
2021/12/01 07:25:06;;;;;;;1.30;1.30;;;;;;;21.18;33.38;99119.41;1907650;74;28162;-49
2021/12/01 07:27:56;;;;;;;1.30;1.30;;;;;;;21.16;33.38;99112.52;1892076;74;28141;-50
2021/12/01 07:30:44;;;;;;;1.40;1.30;;;;;;;21.21;33.42;99114.82;1899776;74;28130;-50
2021/12/01 07:33:34;;;;;;;1.50;1.40;;;;;;;21.20;33.46;99115.06;1879915;74;28214;-53
2021/12/01 07:36:23;;;;;;;1.30;1.30;;;;;;;21.21;33.37;99103.89;1903491;74;30078;-51
2021/12/01 07:39:11;;;;;;;1.40;1.40;;;;;;;21.23;33.35;99103.68;1890973;74;28144;-53
2021/12/01 07:41:59;;;;;;;1.30;1.30;;;;;;;21.29;33.31;99101.36;1888866;74;28095;-54
2021/12/01 07:44:49;;;;;;;3.30;1.40;;;;;;;21.32;33.40;99098.16;1877206;74;28007;-51
2021/12/01 07:47:37;;;;;;;3.05;1.40;;;;;;;21.43;33.47;99104.17;1871985;75;28201;-51
2021/12/01 07:50:26;;;;;;;3.35;1.65;;;;;;;21.51;33.55;99094.27;1878806;75;28097;-50
2021/12/01 07:53:15;;;;;;;1.65;1.30;;;;;;;21.55;33.53;99084.52;1880821;75;28131;-51
2021/12/01 07:56:06;;;;;;;1.50;1.35;;;;;;;21.58;33.58;99087.31;1890265;75;28160;-50
2021/12/01 07:58:54;;;;;;;2.03;1.70;;;;;;;21.59;33.58;99078.86;1858120;75;28160;-49
2021/12/01 08:01:44;;;;;;;1.75;1.60;;;;;;;21.61;33.67;99066.34;1883487;75;28580;-53
2021/12/01 08:04:33;;;;;;;2.70;1.50;;;;;;;21.62;33.69;99055.16;1853153;77;28132;-48
2021/12/01 08:07:24;;;;;;;1.45;1.35;;;;;;;21.61;33.64;99053.48;1896345;75;28148;-50
2021/12/01 08:10:13;;;;;;;1.57;1.40;;;;;;;21.61;33.66;99054.05;1899776;75;28137;-51
2021/12/01 08:13:04;;;;;;;1.60;1.50;;;;;;;21.61;33.69;99048.58;1871822;75;28063;-50
2021/12/01 08:15:53;;;;;;;1.50;1.40;;;;;;;21.60;33.66;99050.48;1881125;75;28047;-51
2021/12/01 08:18:41;;;;;;;3.73;1.50;;;;;;;21.58;33.71;99052.62;1883096;75;28134;-49
2021/12/01 08:21:30;;;;;;;1.50;1.40;;;;;;;21.58;33.73;99046.31;1857328;75;28108;-49
2021/12/01 08:24:20;;;;;;;1.47;1.30;;;;;;;21.59;33.70;99039.23;1887937;75;28091;-50
2021/12/01 08:27:08;;;;;;;1.60;1.50;;;;;;;21.58;33.70;99040.33;1856975;75;28102;-48
2021/12/01 08:29:57;;;;;;;1.70;1.40;;;;;;;21.59;33.68;99022.00;1867428;75;28216;-52
2021/12/01 08:32:46;;;;;;;1.60;1.35;;;;;;;21.61;33.68;99013.86;1869008;75;28124;-49
2021/12/01 08:35:36;;;;;;;1.70;1.50;;;;;;;21.62;33.69;99006.50;1872329;75;28187;-51
2021/12/01 08:38:25;;;;;;;2.30;1.42;;;;;;;21.58;33.65;98995.23;1877920;75;28158;-51
2021/12/01 08:41:15;;;;;;;1.50;1.40;;;;;;;21.61;33.69;98994.72;1867160;75;28168;-50
2021/12/01 08:44:03;;;;;;;2.35;1.40;;;;;;;21.61;33.64;98995.28;1882430;75;28108;-48
2021/12/01 08:46:53;;;;;;;1.60;1.50;;;;;;;21.58;33.64;98997.13;1870105;75;28168;-49
2021/12/01 08:49:44;;;;;;;1.37;1.30;;;;;;;21.60;33.66;98991.72;1899480;75;28097;-49
2021/12/01 08:52:34;;;;;;;1.70;1.50;;;;;;;21.58;33.66;98986.19;1867649;75;28170;-48
2021/12/01 08:55:23;;;;;;;1.43;1.33;;;;;;;21.61;33.59;98987.89;1870693;75;28370;-48
2021/12/01 08:58:15;;;;;;;2.45;1.50;;;;;;;21.61;33.58;98996.09;1881445;75;28023;-48
2021/12/01 09:01:04;;;;;;;1.50;1.40;;;;;;;21.62;33.55;99001.87;1867319;75;28109;-50
2021/12/01 09:03:53;;;;;;;2.30;1.20;;;;;;;21.65;33.50;98977.33;1878465;75;28167;-48
2021/12/01 09:06:42;;;;;;;1.60;1.40;;;;;;;21.67;33.50;98974.65;1868778;76;28120;-52
2021/12/01 09:09:31;;;;;;;1.42;1.32;;;;;;;21.66;33.47;98979.80;1880158;75;28041;-50
2021/12/01 09:12:19;;;;;;;1.87;1.77;;;;;;;21.68;33.47;98972.75;1884740;75;28188;-49
2021/12/01 09:15:09;;;;;;;1.50;1.40;;;;;;;21.68;33.44;98962.63;1873368;75;28160;-50
2021/12/01 09:17:57;;;;;;;1.60;1.47;;;;;;;21.69;33.42;98960.73;1884482;75;28031;-50
2021/12/01 09:20:46;;;;;;;1.50;1.40;;;;;;;21.68;33.41;98948.16;1867546;75;28073;-49
2021/12/01 09:23:35;;;;;;;1.50;1.40;;;;;;;21.65;33.45;98946.73;1874822;75;35293;-53
2021/12/01 09:26:23;;;;;;;1.80;1.40;;;;;;;21.59;33.07;98929.08;1885178;75;28049;-52
2021/12/01 09:29:12;;;;;;;1.57;1.47;;;;;;;21.59;33.07;98929.08;1882130;75;28255;-51
2021/12/01 09:32:02;;;;;;;2.40;1.50;;;;;;;21.63;33.40;98930.27;1899368;75;28026;-49
2021/12/01 09:34:50;;;;;;;1.85;1.75;;;;;;;21.62;33.42;98934.06;1890531;75;32004;-51
2021/12/01 09:37:39;;;;;;;3.15;1.75;;;;;;;21.62;33.39;98925.34;1897443;75;28694;-50
2021/12/01 09:40:28;;;;;;;1.47;1.40;;;;;;;21.61;33.41;98912.73;1872623;75;28070;-50
2021/12/01 09:43:19;;;;;;;1.50;1.40;;;;;;;21.61;33.38;98914.09;1870613;75;28181;-50
2021/12/01 09:46:11;;;;;;;2.00;1.50;;;;;;;21.64;33.36;98905.95;1894662;75;28087;-50
2021/12/01 09:49:00;;;;;;;1.80;1.40;;;;;;;21.64;33.28;98895.86;1880950;75;28168;-52
2021/12/01 09:51:49;;;;;;;1.60;1.50;;;;;;;21.65;33.32;98890.70;1857002;77;28225;-51
2021/12/01 09:54:38;;;;;;;1.42;1.37;;;;;;;21.69;33.27;98875.99;1871924;75;28157;-48
2021/12/01 09:57:27;;;;;;;1.60;1.50;;;;;;;21.70;33.18;98870.30;1888620;75;31968;-50
2021/12/01 10:00:16;;;;;;;1.53;1.43;;;;;;;21.72;33.18;98861.31;1875943;75;28133;-49
2021/12/01 10:03:05;;;;;;;1.47;1.37;;;;;;;21.73;33.13;98858.02;1881471;75;28091;-48
2021/12/01 10:06:14;;;;;;;1.60;1.50;;;;;;;21.75;33.14;98834.03;1882276;75;28201;-47
2021/12/01 10:09:02;;;;;;;1.37;1.32;;;;;;;21.74;33.15;98824.16;1872840;75;28125;-47
2021/12/01 10:11:51;;;;;;;1.70;1.60;;;;;;;21.67;33.15;98818.84;1880471;75;28094;-50
2021/12/01 10:14:45;;;;;;;1.60;1.50;;;;;;;21.72;33.12;98818.95;1864782;75;28163;-47
2021/12/01 10:17:36;;;;;;;1.37;1.32;;;;;;;21.74;33.10;98818.69;1868050;75;28153;-48
2021/12/01 10:20:25;;;;;;;1.47;1.30;;;;;;;21.71;33.12;98810.44;1896820;75;28084;-47
2021/12/01 10:23:16;;;;;;;1.65;1.55;;;;;;;21.69;33.09;98803.03;1867463;75;28141;-48
2021/12/01 10:26:10;;;;;;;1.50;1.40;;;;;;;21.70;33.10;98792.41;1885964;75;28181;-47
2021/12/01 10:29:05;;;;;;;1.63;1.50;;;;;;;21.68;33.14;98784.95;1871922;75;28051;-50
2021/12/01 10:31:56;;;;;;;1.50;1.40;;;;;;;21.68;33.13;98782.78;1890717;75;28400;-50
2021/12/01 10:34:50;;;;;;;1.60;1.50;;;;;;;21.68;33.13;98779.48;1878758;75;28142;-47
2021/12/01 10:37:38;;;;;;;1.40;1.30;;;;;;;21.67;33.13;98768.28;1875253;75;28025;-49
2021/12/01 10:40:27;;;;;;;1.50;1.40;;;;;;;21.66;33.15;98752.11;1883513;75;28232;-48
2021/12/01 10:43:15;;;;;;;1.40;1.40;;;;;;;21.65;33.17;98754.04;1890533;75;28213;-49
2021/12/01 10:46:13;;;;;;;1.50;1.40;;;;;;;21.63;33.14;98745.79;1893173;75;28043;-50
2021/12/01 10:49:05;;;;;;;1.47;1.37;;;;;;;21.61;33.18;98736.45;1880891;75;28091;-50
2021/12/01 10:51:54;;;;;;;1.62;1.52;;;;;;;21.59;33.19;98725.47;1868626;76;28156;-50
2021/12/01 10:54:42;;;;;;;1.40;1.40;;;;;;;21.56;33.22;98720.52;1883678;75;28091;-47
2021/12/01 10:57:30;;;;;;;1.60;1.50;;;;;;;21.54;33.23;98713.91;1879594;75;28121;-48
2021/12/01 11:00:31;;;;;;;1.57;1.47;;;;;;;21.56;33.21;98713.16;1886643;75;28018;-49
2021/12/01 11:03:30;;;;;;;1.60;1.50;;;;;;;21.56;33.18;98699.49;1877957;75;28153;-49
2021/12/01 11:06:20;;;;;;;1.50;1.40;;;;;;;21.55;33.14;98694.26;1880563;75;28103;-49
2021/12/01 11:09:09;;;;;;;1.60;1.47;;;;;;;21.52;33.17;98683.28;1890471;75;28112;-50
2021/12/01 11:12:01;;;;;;;1.62;1.52;;;;;;;21.55;33.14;98677.33;1879392;75;28160;-51
2021/12/01 11:14:50;;;;;;;1.40;1.35;;;;;;;21.55;33.15;98659.56;1892056;75;28088;-52
2021/12/01 11:17:45;;;;;;;1.52;1.42;;;;;;;21.53;33.17;98648.06;1881128;75;28099;-52
2021/12/01 11:20:48;;;;;;;1.70;1.60;;;;;;;21.54;33.15;98644.23;1876863;75;28045;-48
2021/12/01 11:23:41;;;;;;;1.70;1.60;;;;;;;21.53;33.17;98645.86;1890813;75;28171;-48
2021/12/01 11:26:32;;;;;;;1.60;1.50;;;;;;;21.51;33.18;98625.62;1890836;75;28093;-48
2021/12/01 11:29:22;;;;;;;1.52;1.42;;;;;;;21.49;33.23;98622.31;1885861;75;28034;-51
2021/12/01 11:32:10;;;;;;;1.50;1.40;;;;;;;21.48;33.21;98606.98;1880544;75;28100;-51
2021/12/01 11:34:59;;;;;;;1.60;1.50;;;;;;;21.49;33.20;98610.02;1895912;75;28092;-53
2021/12/01 11:37:55;;;;;;;1.50;1.47;;;;;;;21.48;33.20;98608.35;1889870;75;28166;-51
2021/12/01 11:40:40;;;;;;;1.70;1.60;;;;;;;21.46;33.25;98599.58;1921956;73;28076;-49
2021/12/01 11:43:31;;;;;;;1.42;1.40;;;;;;;21.48;33.19;98595.22;1871282;75;28213;-47
2021/12/01 11:46:20;;;;;;;1.60;1.50;;;;;;;21.47;33.19;98590.28;1890489;75;28445;-49
2021/12/01 11:49:12;;;;;;;1.60;1.50;;;;;;;21.47;33.22;98589.48;1857148;75;28174;-47
2021/12/01 11:52:04;;;;;;;1.65;1.55;;;;;;;21.45;33.22;98589.72;1872109;75;29065;-49
2021/12/01 11:54:52;;;;;;;1.60;1.60;;;;;;;21.44;33.25;98588.08;1862772;75;28236;-47
2021/12/01 11:57:41;;;;;;;1.52;1.42;;;;;;;21.42;33.21;98594.86;1884745;75;28082;-49
2021/12/01 12:00:48;;;;;;;1.80;1.70;;;;;;;21.43;33.20;98587.77;1890353;75;28074;-48
2021/12/01 12:03:37;;;;;;;1.40;1.30;;;;;;;21.40;33.23;98570.50;1866738;75;28201;-50
2021/12/01 12:06:31;;;;;;;1.80;1.70;;;;;;;21.39;33.22;98576.22;1883938;75;28453;-49
2021/12/01 12:09:22;;;;;;;2.37;1.50;;;;;;;21.39;33.23;98568.86;1880233;75;28115;-51
2021/12/01 12:12:14;;;;;;;1.70;1.60;;;;;;;21.40;33.22;98566.97;1883095;75;28096;-47
2021/12/01 12:15:02;;;;;;;1.70;1.60;;;;;;;21.39;33.22;98559.30;1871609;75;28179;-52
2021/12/01 12:17:50;;;;;;;1.80;1.52;;;;;;;21.40;33.19;98556.84;1863095;75;28178;-47
2021/12/01 12:20:44;;;;;;;1.95;1.85;;;;;;;21.42;33.12;98567.54;1868786;76;28143;-49
2021/12/01 12:23:37;;;;;;;1.62;1.52;;;;;;;21.41;33.14;98554.41;1890393;75;28123;-48
2021/12/01 12:26:38;;;;;;;1.70;1.60;;;;;;;21.40;33.13;98555.48;1890825;75;28059;-50
2021/12/01 12:29:29;;;;;;;1.60;1.50;;;;;;;21.41;33.18;98564.51;1868724;76;28191;-49
2021/12/01 12:32:22;;;;;;;1.80;1.60;;;;;;;21.39;33.15;98548.91;1868953;76;28235;-50
2021/12/01 12:35:14;;;;;;;2.80;1.70;;;;;;;21.38;33.14;98530.31;1850617;77;28142;-47
2021/12/01 12:38:11;;;;;;;1.60;1.50;;;;;;;21.38;33.06;98497.53;1889090;75;28087;-49
2021/12/01 12:41:10;;;;;;;1.77;1.67;;;;;;;21.37;33.03;98501.89;1864448;75;28152;-51
2021/12/01 12:44:03;;;;;;;1.77;1.67;;;;;;;21.38;33.00;98515.29;1866339;75;28236;-48
2021/12/01 12:47:06;;;;;;;1.90;1.50;;;;;;;21.40;32.98;98502.77;1869923;75;28077;-50
2021/12/01 12:50:19;;;;;;;2.50;1.75;;;;;;;21.38;32.97;98503.56;1872964;75;28143;-48
2021/12/01 12:53:09;;;;;;;1.70;1.60;;;;;;;21.39;32.97;98495.11;1861490;75;28095;-47
2021/12/01 12:55:58;;;;;;;2.60;1.80;;;;;;;21.35;32.99;98477.01;1822015;78;28224;-52
2021/12/01 12:58:47;;;;;;;1.70;1.60;;;;;;;21.34;32.96;98468.54;1826177;77;28258;-48
2021/12/01 13:01:35;;;;;;;1.60;1.50;;;;;;;21.34;32.97;98460.87;1878719;75;28185;-49
2021/12/01 13:05:04;;;;;;;2.00;1.70;;;;;;;21.36;32.93;98479.20;1889374;75;28135;-50
2021/12/01 13:07:55;;;;;;;1.70;1.60;;;;;;;21.34;32.95;98467.17;1869177;75;28064;-48
2021/12/01 13:10:43;;;;;;;1.90;1.80;;;;;;;21.29;33.04;98450.70;1897725;75;28048;-51
2021/12/01 13:13:36;;;;;;;1.80;1.70;;;;;;;21.26;33.04;98439.47;1878890;75;28127;-49
2021/12/01 13:16:26;;;;;;;2.03;1.80;;;;;;;21.28;33.05;98437.31;1858024;75;28205;-49
2021/12/01 13:19:15;;;;;;;1.80;1.70;;;;;;;21.29;33.04;98434.32;1875494;75;28092;-51
2021/12/01 13:22:06;;;;;;;1.70;1.60;;;;;;;21.30;33.05;98427.80;1878923;75;28090;-49
2021/12/01 13:24:58;;;;;;;3.00;1.80;;;;;;;21.30;33.03;98421.50;1862779;75;28314;-47
2021/12/01 13:27:46;;;;;;;1.60;1.50;;;;;;;21.32;32.98;98422.06;1883513;75;28172;-51